createdAt,value
2018-03-04T00:01:17.702Z,25.10
2018-03-04T00:03:45.953Z,24.07
2018-03-04T00:06:15.156Z,24.83
2018-03-04T00:08:44.175Z,24.70
2018-03-04T00:11:12.428Z,27.00
2018-03-04T00:13:41.472Z,26.20
2018-03-04T00:16:09.719Z,24.27
2018-03-04T00:18:37.965Z,24.50
2018-03-04T00:21:06.235Z,24.23
2018-03-04T00:23:34.485Z,25.87
2018-03-04T00:26:02.734Z,27.02
2018-03-04T00:28:31.217Z,25.00
2018-03-04T00:30:59.463Z,25.70
2018-03-04T00:33:28.478Z,24.60
2018-03-04T00:35:56.746Z,27.10
2018-03-04T00:38:24.993Z,28.13
2018-03-04T00:40:53.229Z,26.17
2018-03-04T00:43:21.748Z,27.77
2018-03-04T00:45:49.986Z,27.87
2018-03-04T00:48:18.434Z,28.13
2018-03-04T00:50:47.463Z,26.43
2018-03-04T00:53:15.694Z,25.47
2018-03-04T00:55:43.931Z,26.80
2018-03-04T00:58:12.194Z,27.60
2018-03-04T01:00:40.434Z,25.77
2018-03-04T01:03:09.442Z,26.47
2018-03-04T01:05:37.833Z,26.23
2018-03-04T01:08:06.479Z,28.67
2018-03-04T01:10:35.504Z,26.77
2018-03-04T01:13:04.310Z,27.05
2018-03-04T01:15:32.551Z,26.03
2018-03-04T01:18:01.581Z,26.53
2018-03-04T01:20:29.846Z,29.50
2018-03-04T01:22:58.104Z,28.73
2018-03-04T01:25:27.109Z,26.80
2018-03-04T01:27:55.377Z,29.70
2018-03-04T01:30:23.617Z,26.93
2018-03-04T01:32:51.861Z,26.60
2018-03-04T01:35:20.135Z,28.27
2018-03-04T01:37:48.465Z,27.00
2018-03-04T01:40:17.480Z,28.30
2018-03-04T01:42:45.742Z,28.80
2018-03-04T01:45:13.985Z,27.70
2018-03-04T01:47:42.230Z,31.27
2018-03-04T01:50:10.704Z,29.93
2018-03-04T01:52:38.953Z,27.80
2018-03-04T01:55:07.956Z,29.60
2018-03-04T01:57:36.991Z,28.07
2018-03-04T02:00:05.241Z,27.17
2018-03-04T02:02:33.494Z,27.27
2018-03-04T02:05:02.613Z,27.17
2018-03-04T02:07:30.869Z,31.40
2018-03-04T02:10:00.035Z,27.40
2018-03-04T02:12:28.321Z,32.10
2018-03-04T02:14:56.561Z,32.67
2018-03-04T02:17:24.801Z,30.30
2018-03-04T02:19:53.834Z,30.60
2018-03-04T02:22:22.087Z,31.17
2018-03-04T02:24:50.342Z,31.33
2018-03-04T02:27:18.962Z,31.03
2018-03-04T02:29:47.213Z,30.33
2018-03-04T02:32:16.412Z,29.90
2018-03-04T02:34:44.686Z,34.57
2018-03-04T02:37:12.938Z,32.07
2018-03-04T02:39:41.333Z,32.43
2018-03-04T02:42:10.382Z,30.20
2018-03-04T02:44:38.630Z,30.57
2018-03-04T02:47:06.874Z,30.40
2018-03-04T02:49:35.322Z,32.23
2018-03-04T02:52:03.751Z,30.03
2018-03-04T02:54:32.922Z,32.37
2018-03-04T02:57:01.191Z,32.63
2018-03-04T02:59:29.432Z,31.77
2018-03-04T03:01:57.679Z,34.07
2018-03-04T03:04:27.003Z,32.90
2018-03-04T03:06:55.385Z,31.40
2018-03-04T03:09:23.672Z,33.27
2018-03-04T03:11:52.287Z,34.57
2018-03-04T03:14:20.550Z,33.63
2018-03-04T03:16:49.034Z,34.47
2018-03-04T03:19:17.313Z,35.10
2018-03-04T03:21:45.691Z,33.37
2018-03-04T03:24:14.059Z,34.40
2018-03-04T03:26:42.744Z,33.90
2018-03-04T03:29:11.266Z,32.87
2018-03-04T03:31:39.787Z,33.23
2018-03-04T03:34:08.373Z,31.40
2018-03-04T03:36:36.969Z,34.17
2018-03-04T03:39:05.220Z,31.90
2018-03-04T03:41:34.602Z,32.07
2018-03-04T03:44:02.935Z,34.03
2018-03-04T03:46:31.243Z,32.03
2018-03-04T03:48:59.658Z,34.67
2018-03-04T03:51:29.419Z,33.57
2018-03-04T03:53:57.669Z,35.33
2018-03-04T03:56:26.174Z,34.97
2018-03-04T03:58:54.429Z,34.05
2018-03-04T04:01:22.899Z,35.57
2018-03-04T04:03:51.392Z,38.60
2018-03-04T04:06:19.648Z,32.87
2018-03-04T04:08:48.908Z,33.35
2018-03-04T04:11:17.468Z,33.00
2018-03-04T04:13:46.211Z,32.40
2018-03-04T04:16:15.307Z,35.50
2018-03-04T04:18:44.343Z,32.90
2018-03-04T04:21:12.684Z,35.10
2018-03-04T04:23:41.134Z,34.67
2018-03-04T04:26:10.277Z,36.10
2018-03-04T04:28:38.519Z,33.60
2018-03-04T04:31:07.020Z,33.07
2018-03-04T04:33:36.085Z,35.60
2018-03-04T04:36:04.338Z,36.60
2018-03-04T04:38:32.602Z,34.47
2018-03-04T04:41:00.887Z,33.73
2018-03-04T04:43:29.126Z,35.90
2018-03-04T04:45:57.392Z,36.40
2018-03-04T04:48:25.666Z,34.13
2018-03-04T04:50:53.926Z,35.97
2018-03-04T04:53:22.162Z,34.97
2018-03-04T04:55:50.694Z,33.17
2018-03-04T04:58:18.946Z,34.00
2018-03-04T05:00:47.195Z,34.80
2018-03-04T05:03:15.473Z,33.67
2018-03-04T05:05:43.715Z,34.00
2018-03-04T05:08:12.721Z,38.00
2018-03-04T05:10:41.009Z,34.63
2018-03-04T05:13:09.251Z,36.13
2018-03-04T05:15:37.656Z,33.20
2018-03-04T05:18:06.690Z,34.73
2018-03-04T05:20:34.942Z,34.97
2018-03-04T05:23:03.211Z,34.53
2018-03-04T05:25:32.246Z,34.67
2018-03-04T05:28:00.494Z,32.33
2018-03-04T05:30:28.755Z,33.45
2018-03-04T05:32:58.070Z,31.17
2018-03-04T05:35:26.337Z,34.03
2018-03-04T05:37:55.353Z,33.45
2018-03-04T05:40:23.744Z,35.10
2018-03-04T05:42:51.991Z,36.73
2018-03-04T05:45:20.235Z,35.85
2018-03-04T05:47:48.517Z,35.37
2018-03-04T05:50:16.773Z,35.05
2018-03-04T05:52:45.018Z,32.17
2018-03-04T05:55:13.298Z,34.40
2018-03-04T05:57:41.777Z,36.07
2018-03-04T06:00:10.030Z,35.10
2018-03-04T06:02:38.302Z,35.50
2018-03-04T06:05:07.318Z,36.87
2018-03-04T06:07:35.599Z,35.30
2018-03-04T06:10:03.882Z,34.63
2018-03-04T06:12:32.130Z,35.67
2018-03-04T06:15:01.182Z,36.10
2018-03-04T06:17:29.622Z,36.80
2018-03-04T06:19:58.817Z,34.30
2018-03-04T06:22:27.050Z,34.50
2018-03-04T06:24:55.338Z,32.05
2018-03-04T06:27:23.577Z,33.17
2018-03-04T06:29:51.829Z,37.83
2018-03-04T06:32:20.337Z,36.20
2018-03-04T06:34:48.766Z,35.87
2018-03-04T06:37:17.786Z,35.40
2018-03-04T06:39:46.150Z,33.70
2018-03-04T06:42:15.163Z,38.47
2018-03-04T06:44:43.419Z,37.40
2018-03-04T06:47:11.680Z,36.37
2018-03-04T06:49:39.926Z,35.40
2018-03-04T06:52:08.170Z,35.90
2018-03-04T06:54:36.450Z,36.43
2018-03-04T06:57:04.701Z,35.13
2018-03-04T06:59:33.711Z,34.23
2018-03-04T07:02:02.094Z,36.30
2018-03-04T07:04:30.375Z,34.00
2018-03-04T07:06:58.627Z,36.63
2018-03-04T07:09:27.669Z,33.33
2018-03-04T07:11:55.926Z,35.83
2018-03-04T07:14:24.175Z,37.60
2018-03-04T07:16:53.214Z,37.30
2018-03-04T07:19:21.846Z,36.83
2018-03-04T07:21:50.863Z,32.90
2018-03-04T07:24:19.253Z,33.77
2018-03-04T07:26:47.497Z,34.97
2018-03-04T07:29:16.517Z,32.90
2018-03-04T07:31:44.802Z,35.27
2018-03-04T07:34:13.022Z,32.67
2018-03-04T07:36:41.274Z,34.83
2018-03-04T07:39:09.905Z,34.30
2018-03-04T07:41:44.825Z,36.50
2018-03-04T07:44:13.108Z,35.57
2018-03-04T07:46:41.352Z,34.30
2018-03-04T07:49:09.594Z,35.03
2018-03-04T07:51:37.997Z,34.73
2018-03-04T07:54:06.248Z,31.67
2018-03-04T07:56:39.270Z,34.83
2018-03-04T07:59:08.411Z,33.73
2018-03-04T08:01:38.566Z,33.63
2018-03-04T08:04:06.836Z,32.87
2018-03-04T08:06:35.195Z,34.20
2018-03-04T08:09:04.202Z,38.40
2018-03-04T08:11:33.641Z,33.30
2018-03-04T08:14:01.874Z,35.60
2018-03-04T08:16:30.891Z,36.50
2018-03-04T08:18:59.162Z,32.13
2018-03-04T08:21:27.535Z,33.43
2018-03-04T08:23:55.782Z,35.87
2018-03-04T08:26:35.999Z,33.80
2018-03-04T08:29:04.242Z,32.70
2018-03-04T08:31:32.490Z,32.47
2018-03-04T08:34:00.838Z,36.03
2018-03-04T08:36:29.246Z,34.20
2018-03-04T08:38:57.530Z,32.73
2018-03-04T08:41:25.808Z,34.97
2018-03-04T08:43:54.050Z,34.20
2018-03-04T08:46:22.305Z,36.00
2018-03-04T08:48:50.798Z,35.00
2018-03-04T08:51:19.044Z,31.67
2018-03-04T08:53:47.373Z,32.43
2018-03-04T08:56:15.635Z,32.90
2018-03-04T08:58:43.912Z,33.93
2018-03-04T09:01:12.323Z,31.37
2018-03-04T09:03:40.608Z,35.30
2018-03-04T09:06:08.857Z,32.47
2018-03-04T09:08:37.158Z,32.60
2018-03-04T09:11:06.781Z,32.80
2018-03-04T09:13:35.808Z,32.87
2018-03-04T09:16:04.049Z,30.80
2018-03-04T09:18:32.698Z,31.57
2018-03-04T09:21:00.947Z,32.13
2018-03-04T09:23:29.400Z,30.90
2018-03-04T09:25:58.457Z,33.17
2018-03-04T09:28:26.695Z,30.73
2018-03-04T09:30:54.942Z,34.37
2018-03-04T09:33:23.210Z,33.27
2018-03-04T09:35:51.459Z,30.30
2018-03-04T09:38:19.694Z,30.17
2018-03-04T09:40:48.151Z,31.00
2018-03-04T09:43:17.173Z,33.33
2018-03-04T09:45:45.418Z,33.67
2018-03-04T09:48:13.693Z,31.67
2018-03-04T09:50:42.102Z,30.00
2018-03-04T09:53:10.366Z,31.87
2018-03-04T09:55:39.386Z,30.93
2018-03-04T09:58:07.771Z,30.00
2018-03-04T10:00:36.011Z,29.83
2018-03-04T10:03:04.302Z,29.40
2018-03-04T10:05:32.540Z,30.30
2018-03-04T10:08:00.805Z,29.40
2018-03-04T10:10:29.078Z,30.13
2018-03-04T10:12:57.322Z,28.80
2018-03-04T10:15:25.578Z,29.87
2018-03-04T10:17:56.508Z,30.50
2018-03-04T10:20:24.790Z,31.47
2018-03-04T10:22:53.401Z,31.90
2018-03-04T10:25:21.718Z,28.90
2018-03-04T10:27:49.963Z,29.10
2018-03-04T10:30:19.383Z,31.27
2018-03-04T10:32:47.633Z,30.00
2018-03-04T10:35:16.202Z,30.20
2018-03-04T10:37:44.861Z,31.73
2018-03-04T10:40:13.285Z,30.67
2018-03-04T10:42:41.521Z,29.37
2018-03-04T10:45:09.778Z,32.10
2018-03-04T10:47:38.050Z,29.83
2018-03-04T10:50:06.311Z,30.50
2018-03-04T10:52:34.563Z,29.07
2018-03-04T10:55:02.840Z,29.97
2018-03-04T10:57:31.086Z,27.87
2018-03-04T11:00:07.020Z,30.37
2018-03-04T11:02:38.266Z,29.70
2018-03-04T11:05:06.513Z,26.77
2018-03-04T11:07:34.785Z,30.00
2018-03-04T11:10:03.038Z,29.53
2018-03-04T11:12:32.091Z,32.67
2018-03-04T11:15:00.352Z,31.00
2018-03-04T11:17:28.604Z,31.27
2018-03-04T11:19:56.849Z,31.63
2018-03-04T11:22:25.152Z,31.80
2018-03-04T11:24:53.463Z,28.80
2018-03-04T11:27:22.214Z,30.20
2018-03-04T11:29:51.248Z,27.60
2018-03-04T11:32:19.485Z,27.03
2018-03-04T11:34:47.731Z,29.30
2018-03-04T11:37:16.022Z,29.67
2018-03-04T11:39:44.288Z,26.77
2018-03-04T11:42:13.330Z,26.93
2018-03-04T11:44:41.604Z,28.67
2018-03-04T11:47:09.858Z,29.10
2018-03-04T11:49:39.148Z,27.60
2018-03-04T11:52:07.963Z,25.47
2018-03-04T11:54:36.221Z,28.77
2018-03-04T11:57:04.466Z,28.07
2018-03-04T11:59:32.928Z,27.87
2018-03-04T12:02:01.190Z,27.97
2018-03-04T12:04:29.445Z,27.00
2018-03-04T12:06:57.722Z,30.30
2018-03-04T12:09:26.041Z,28.77
2018-03-04T12:11:54.634Z,27.57
2018-03-04T12:14:23.674Z,26.20
2018-03-04T12:16:52.066Z,27.20
2018-03-04T12:19:20.402Z,26.10
2018-03-04T12:21:48.705Z,26.50
2018-03-04T12:24:16.967Z,24.53
2018-03-04T12:26:45.221Z,24.77
2018-03-04T12:29:14.651Z,24.30
2018-03-04T12:31:42.973Z,23.30
2018-03-04T12:34:11.227Z,24.40
2018-03-04T12:36:40.314Z,23.20
2018-03-04T12:39:08.514Z,26.60
2018-03-04T12:41:36.991Z,23.27
2018-03-04T12:44:05.279Z,22.67
2018-03-04T12:46:33.530Z,21.23
2018-03-04T12:49:02.572Z,23.33
2018-03-04T12:51:30.849Z,22.03
2018-03-04T12:53:59.102Z,20.47
2018-03-04T12:56:27.371Z,20.80
2018-03-04T12:58:55.655Z,21.20
2018-03-04T13:01:23.930Z,20.50
2018-03-04T13:03:52.178Z,20.33
2018-03-04T13:06:21.521Z,18.23
2018-03-04T13:08:49.766Z,20.70
2018-03-04T13:11:18.785Z,20.13
2018-03-04T13:13:47.209Z,20.63
2018-03-04T13:16:15.489Z,21.03
2018-03-04T13:18:43.746Z,20.17
2018-03-04T13:21:12.786Z,20.90
2018-03-04T13:23:41.796Z,20.87
2018-03-04T13:26:10.058Z,21.77
2018-03-04T13:28:38.337Z,19.80
2018-03-04T13:31:06.925Z,18.30
2018-03-04T13:33:35.926Z,18.17
2018-03-04T13:36:04.321Z,15.50
2018-03-04T13:38:32.591Z,14.30
2018-03-04T13:41:01.211Z,15.40
2018-03-04T13:43:29.503Z,18.47
2018-03-04T13:45:58.866Z,16.67
2018-03-04T13:48:27.118Z,15.73
2018-03-04T13:50:56.154Z,14.37
2018-03-04T13:53:25.182Z,14.00
2018-03-04T13:55:53.449Z,15.20
2018-03-04T13:58:25.251Z,14.30
2018-03-04T14:00:53.509Z,15.37
2018-03-04T14:03:21.770Z,16.50
2018-03-04T14:05:50.418Z,17.63
2018-03-04T14:08:18.682Z,17.60
2018-03-04T14:10:46.925Z,18.83
2018-03-04T14:13:15.981Z,18.03
2018-03-04T14:15:44.211Z,20.40
2018-03-04T14:18:12.466Z,19.80
2018-03-04T14:20:40.897Z,18.47
2018-03-04T14:23:09.153Z,17.17
2018-03-04T14:25:37.414Z,18.17
2018-03-04T14:28:05.691Z,16.20
2018-03-04T14:30:34.716Z,17.63
2018-03-04T14:33:03.165Z,18.80
2018-03-04T14:35:32.209Z,17.80
2018-03-04T14:38:00.454Z,18.47
2018-03-04T14:40:28.707Z,16.03
2018-03-04T14:42:56.964Z,17.90
2018-03-04T14:45:25.230Z,20.13
2018-03-04T14:47:53.480Z,17.37
2018-03-04T14:50:21.755Z,18.43
2018-03-04T14:52:50.060Z,17.33
2018-03-04T14:55:18.278Z,19.83
2018-03-04T14:57:47.324Z,17.47
2018-03-04T15:00:15.569Z,17.60
2018-03-04T15:02:43.823Z,16.83
2018-03-04T15:05:12.451Z,16.67
2018-03-04T15:07:40.709Z,17.27
2018-03-04T15:10:08.954Z,17.73
2018-03-04T15:12:37.995Z,17.67
2018-03-04T15:15:06.255Z,16.97
2018-03-04T15:17:35.264Z,17.60
2018-03-04T15:20:03.539Z,18.63
2018-03-04T15:22:31.788Z,17.57
2018-03-04T15:25:00.809Z,19.13
2018-03-04T15:27:29.190Z,17.47
2018-03-04T15:29:57.434Z,18.93
2018-03-04T15:32:26.455Z,18.30
2018-03-04T15:34:54.918Z,18.83
2018-03-04T15:37:24.040Z,19.17
2018-03-04T15:39:52.287Z,18.73
2018-03-04T15:42:21.401Z,19.60
2018-03-04T15:44:50.529Z,18.57
2018-03-04T15:47:18.784Z,18.97
2018-03-04T15:49:47.082Z,19.10
2018-03-04T15:52:15.319Z,17.90
2018-03-04T15:54:44.330Z,19.03
2018-03-04T15:57:12.618Z,18.77
2018-03-04T15:59:40.968Z,19.37
2018-03-04T16:02:09.995Z,18.30
2018-03-04T16:04:38.254Z,18.30
2018-03-04T16:07:06.502Z,19.37
2018-03-04T16:09:35.510Z,19.23
2018-03-04T16:12:04.618Z,16.27
2018-03-04T16:14:32.861Z,17.93
2018-03-04T16:17:01.887Z,17.00
2018-03-04T16:19:33.669Z,20.10
2018-03-04T16:22:01.925Z,17.43
2018-03-04T16:24:30.175Z,17.77
2018-03-04T16:26:58.452Z,17.17
2018-03-04T16:29:26.705Z,17.97
2018-03-04T16:31:54.951Z,18.70
2018-03-04T16:34:23.343Z,19.13
2018-03-04T16:36:51.916Z,17.27
2018-03-04T16:39:20.903Z,18.60
2018-03-04T16:41:49.168Z,17.80
2018-03-04T16:44:17.407Z,17.70
2018-03-04T16:46:45.656Z,17.80
2018-03-04T16:49:14.117Z,15.40
2018-03-04T16:51:42.353Z,18.17
2018-03-04T16:54:11.387Z,17.37
2018-03-04T16:56:40.822Z,17.17
2018-03-04T16:59:09.050Z,18.67
2018-03-04T17:01:37.303Z,17.47
2018-03-04T17:04:06.332Z,17.60
2018-03-04T17:06:34.578Z,17.40
2018-03-04T17:09:03.616Z,18.60
2018-03-04T17:11:31.889Z,18.20
2018-03-04T17:14:00.302Z,19.10
2018-03-04T17:16:28.570Z,18.23
2018-03-04T17:18:56.907Z,17.17
2018-03-04T17:21:25.162Z,18.83
2018-03-04T17:23:54.169Z,19.53
2018-03-04T17:26:22.457Z,19.00
2018-03-04T17:28:50.713Z,19.63
2018-03-04T17:31:19.725Z,19.20
2018-03-04T17:33:48.010Z,19.13
2018-03-04T17:36:16.270Z,19.43
2018-03-04T17:38:45.571Z,20.90
2018-03-04T17:41:14.610Z,19.83
2018-03-04T17:43:42.896Z,21.57
2018-03-04T17:46:11.147Z,21.03
2018-03-04T17:48:39.446Z,19.83
2018-03-04T17:51:07.701Z,20.20
2018-03-04T17:53:35.946Z,23.77
2018-03-04T17:56:04.222Z,20.63
2018-03-04T17:58:32.467Z,23.10
2018-03-04T18:01:00.734Z,22.07
2018-03-04T18:03:29.404Z,20.50
2018-03-04T18:05:57.844Z,21.00
2018-03-04T18:08:26.931Z,20.90
2018-03-04T18:10:55.446Z,20.87
2018-03-04T18:13:23.690Z,22.17
2018-03-04T18:15:51.943Z,22.90
2018-03-04T18:18:20.236Z,20.83
2018-03-04T18:20:48.523Z,23.73
2018-03-04T18:23:16.848Z,21.97
2018-03-04T18:25:45.445Z,25.10
2018-03-04T18:28:13.702Z,24.90
2018-03-04T18:30:41.954Z,21.87
2018-03-04T18:33:10.219Z,24.47
2018-03-04T18:35:39.468Z,22.37
2018-03-04T18:38:07.726Z,26.93
2018-03-04T18:40:36.592Z,22.40
2018-03-04T18:43:05.615Z,23.77
2018-03-04T18:45:33.869Z,21.97
2018-03-04T18:48:02.906Z,22.33
2018-03-04T18:50:31.246Z,25.10
2018-03-04T18:52:59.797Z,25.83
2018-03-04T18:55:28.361Z,24.60
2018-03-04T18:57:56.640Z,23.50
2018-03-04T19:00:24.882Z,24.70
2018-03-04T19:02:53.158Z,27.87
2018-03-04T19:05:21.402Z,26.33
2018-03-04T19:07:49.654Z,26.83
2018-03-04T19:10:17.963Z,25.07
2018-03-04T19:12:46.449Z,26.77
2018-03-04T19:15:14.711Z,25.63
2018-03-04T19:17:43.000Z,27.30
2018-03-04T19:20:11.391Z,26.90
2018-03-04T19:22:39.646Z,26.50
2018-03-04T19:25:08.703Z,26.20
2018-03-04T19:27:36.954Z,26.97
2018-03-04T19:30:05.333Z,25.00
2018-03-04T19:32:33.629Z,24.30
2018-03-04T19:35:01.902Z,27.03
2018-03-04T19:37:30.330Z,25.13
2018-03-04T19:39:58.834Z,26.90
2018-03-04T19:42:28.256Z,25.20
2018-03-04T19:44:56.498Z,27.10
2018-03-04T19:47:25.174Z,27.17
2018-03-04T19:49:53.475Z,27.50
2018-03-04T19:52:21.717Z,27.17
2018-03-04T19:54:49.993Z,28.07
2018-03-04T19:57:18.241Z,24.60
2018-03-04T19:59:46.729Z,27.10
2018-03-04T20:02:15.040Z,29.80
2018-03-04T20:04:43.917Z,26.70
2018-03-04T20:07:12.193Z,29.77
2018-03-04T20:09:40.594Z,27.17
2018-03-04T20:12:09.272Z,28.00
2018-03-04T20:14:37.504Z,27.63
2018-03-04T20:17:05.827Z,27.73
2018-03-04T20:19:34.439Z,26.03
2018-03-04T20:22:06.058Z,30.53
2018-03-04T20:24:34.703Z,37.40
2018-03-04T20:27:02.947Z,31.50
2018-03-04T20:29:32.466Z,31.50
2018-03-04T20:32:00.839Z,30.03
2018-03-04T20:34:29.978Z,28.73
2018-03-04T20:36:58.349Z,27.50
2018-03-04T20:39:26.723Z,28.60
2018-03-04T20:41:54.978Z,26.20
2018-03-04T20:44:24.367Z,27.90
2018-03-04T20:46:53.818Z,28.13
2018-03-04T20:49:22.099Z,28.97
2018-03-04T20:51:50.412Z,29.57
2018-03-04T20:54:20.052Z,27.70
2018-03-04T20:56:49.425Z,28.33
2018-03-04T20:59:17.965Z,30.17
2018-03-04T21:01:46.661Z,28.17
2018-03-04T21:04:14.976Z,28.20
2018-03-04T21:06:43.379Z,26.60
2018-03-04T21:09:12.674Z,26.90
2018-03-04T21:11:41.234Z,26.93
2018-03-04T21:14:09.661Z,30.10
2018-03-04T21:16:38.232Z,28.57
2018-03-04T21:19:07.292Z,27.37
2018-03-04T21:21:35.543Z,26.63
2018-03-04T21:24:03.974Z,29.23
2018-03-04T21:26:32.997Z,27.73
2018-03-04T21:29:01.266Z,26.40
2018-03-04T21:31:30.301Z,28.60
2018-03-04T21:33:58.542Z,27.40
2018-03-04T21:36:26.789Z,26.37
2018-03-04T21:38:55.067Z,30.20
2018-03-04T21:41:23.308Z,29.67
2018-03-04T21:43:51.726Z,27.87
2018-03-04T21:46:20.151Z,28.33
2018-03-04T21:48:48.414Z,31.17
2018-03-04T21:51:16.671Z,28.17
2018-03-04T21:53:45.708Z,28.67
2018-03-04T21:56:13.954Z,29.90
2018-03-04T21:58:42.193Z,29.87
2018-03-04T22:01:10.462Z,29.03
2018-03-04T22:03:39.819Z,28.43
2018-03-04T22:06:08.083Z,31.27
2018-03-04T22:08:37.441Z,29.10
2018-03-04T22:11:05.698Z,30.10
2018-03-04T22:13:34.934Z,30.53
2018-03-04T22:16:03.178Z,31.00
2018-03-04T22:18:31.453Z,30.40
2018-03-04T22:20:59.703Z,28.10
2018-03-04T22:23:27.981Z,31.40
2018-03-04T22:25:56.248Z,28.90
2018-03-04T22:28:25.278Z,29.00
2018-03-04T22:30:54.262Z,27.90
2018-03-04T22:33:22.908Z,28.03
2018-03-04T22:35:52.159Z,27.97
2018-03-04T22:38:20.457Z,29.70
2018-03-04T22:40:48.926Z,27.03
2018-03-04T22:43:17.674Z,25.90
2018-03-04T22:45:46.171Z,29.00
2018-03-04T22:48:14.852Z,27.37
2018-03-04T22:50:43.459Z,27.90
2018-03-04T22:53:11.901Z,27.17
2018-03-04T22:55:40.375Z,28.90
2018-03-04T22:58:09.057Z,26.03
2018-03-04T23:00:37.373Z,27.00
2018-03-04T23:03:05.658Z,27.30
2018-03-04T23:05:34.181Z,27.43
2018-03-04T23:08:02.558Z,26.00
2018-03-04T23:10:31.141Z,25.07
2018-03-04T23:12:59.493Z,27.60
2018-03-04T23:15:27.749Z,23.77
2018-03-04T23:17:56.010Z,29.87
2018-03-04T23:20:25.175Z,28.93
2018-03-04T23:22:53.792Z,26.43
2018-03-04T23:25:22.305Z,26.33
2018-03-04T23:27:50.534Z,25.77
2018-03-04T23:30:19.580Z,27.23
2018-03-04T23:32:47.818Z,25.77
2018-03-04T23:35:16.487Z,25.23
2018-03-04T23:37:44.800Z,26.60
2018-03-04T23:40:13.290Z,27.00
2018-03-04T23:42:41.534Z,25.90
2018-03-04T23:45:09.818Z,26.90
2018-03-04T23:47:38.141Z,27.23
2018-03-04T23:50:07.360Z,27.37
2018-03-04T23:52:35.850Z,27.73
2018-03-04T23:55:04.108Z,30.00
2018-03-04T23:57:32.449Z,26.50
